sensor_id;sensor_type;location;lat;lon;timestamp;pressure;altitude;pressure_sealevel;temperature;humidity
79453;BME280;68899;52.116;5.404;2023-08-21T00:00:38;102411.19;;;23.12;61.19
79453;BME280;68899;52.116;5.404;2023-08-21T00:03:05;102404.97;;;23.11;61.02
79453;BME280;68899;52.116;5.404;2023-08-21T00:05:33;102411.31;;;23.10;60.91
79453;BME280;68899;52.116;5.404;2023-08-21T00:07:59;102414.97;;;23.09;60.99
79453;BME280;68899;52.116;5.404;2023-08-21T00:10:26;102416.97;;;23.07;61.09
79453;BME280;68899;52.116;5.404;2023-08-21T00:12:53;102417.94;;;23.06;60.88
79453;BME280;68899;52.116;5.404;2023-08-21T00:15:19;102421.63;;;23.05;61.02
79453;BME280;68899;52.116;5.404;2023-08-21T00:17:46;102416.25;;;23.05;60.84
79453;BME280;68899;52.116;5.404;2023-08-21T00:20:13;102419.94;;;23.04;61.02
79453;BME280;68899;52.116;5.404;2023-08-21T00:22:40;102416.41;;;23.04;61.00
79453;BME280;68899;52.116;5.404;2023-08-21T00:25:06;102424.44;;;23.04;60.87
79453;BME280;68899;52.116;5.404;2023-08-21T00:27:33;102415.66;;;23.02;60.82
79453;BME280;68899;52.116;5.404;2023-08-21T00:30:00;102421.91;;;23.02;61.04
79453;BME280;68899;52.116;5.404;2023-08-21T00:32:27;102412.13;;;23.01;60.69
79453;BME280;68899;52.116;5.404;2023-08-21T00:34:53;102424.69;;;23.01;60.75
79453;BME280;68899;52.116;5.404;2023-08-21T00:37:21;102410.56;;;22.99;60.99
79453;BME280;68899;52.116;5.404;2023-08-21T00:39:47;102424.84;;;22.99;60.84
79453;BME280;68899;52.116;5.404;2023-08-21T00:42:14;102410.56;;;22.99;61.14
79453;BME280;68899;52.116;5.404;2023-08-21T00:44:40;102414.25;;;22.98;60.86
79453;BME280;68899;52.116;5.404;2023-08-21T00:47:07;102407.19;;;22.97;60.82
79453;BME280;68899;52.116;5.404;2023-08-21T00:49:34;102410.88;;;22.96;60.79
79453;BME280;68899;52.116;5.404;2023-08-21T00:52:01;102404.66;;;22.95;60.71
79453;BME280;68899;52.116;5.404;2023-08-21T00:54:29;102411.84;;;22.95;60.68
79453;BME280;68899;52.116;5.404;2023-08-21T00:56:56;102411.13;;;22.93;61.00
79453;BME280;68899;52.116;5.404;2023-08-21T00:59:22;102411.13;;;22.93;60.98
79453;BME280;68899;52.116;5.404;2023-08-21T01:01:49;102414.66;;;22.93;60.69
79453;BME280;68899;52.116;5.404;2023-08-21T01:04:16;102411.13;;;22.93;60.59
79453;BME280;68899;52.116;5.404;2023-08-21T01:06:42;102407.59;;;22.92;60.91
79453;BME280;68899;52.116;5.404;2023-08-21T01:09:33;102396.00;;;22.92;60.72
79453;BME280;68899;52.116;5.404;2023-08-21T01:15:02;102399.81;;;22.89;60.79
79453;BME280;68899;52.116;5.404;2023-08-21T01:17:30;102402.50;;;22.89;60.56
79453;BME280;68899;52.116;5.404;2023-08-21T01:19:58;102404.47;;;22.87;60.64
79453;BME280;68899;52.116;5.404;2023-08-21T01:22:35;102407.16;;;22.87;60.94
79453;BME280;68899;52.116;5.404;2023-08-21T01:25:04;102401.78;;;22.87;60.80
79453;BME280;68899;52.116;5.404;2023-08-21T01:27:32;102401.94;;;22.86;60.79
79453;BME280;68899;52.116;5.404;2023-08-21T01:30:00;102404.63;;;22.86;61.08
79453;BME280;68899;52.116;5.404;2023-08-21T01:32:45;102399.25;;;22.86;60.68
79453;BME280;68899;52.116;5.404;2023-08-21T01:35:14;102397.53;;;22.84;60.97
79453;BME280;68899;52.116;5.404;2023-08-21T01:37:42;102406.53;;;22.83;61.04
79453;BME280;68899;52.116;5.404;2023-08-21T01:40:09;102403.84;;;22.83;61.19
79453;BME280;68899;52.116;5.404;2023-08-21T01:42:36;102407.53;;;22.82;60.98
79453;BME280;68899;52.116;5.404;2023-08-21T01:45:03;102408.38;;;22.83;60.78
79453;BME280;68899;52.116;5.404;2023-08-21T01:47:30;102414.72;;;22.82;61.03
79453;BME280;68899;52.116;5.404;2023-08-21T01:49:57;102411.19;;;22.81;61.08
79453;BME280;68899;52.116;5.404;2023-08-21T01:52:23;102408.38;;;22.83;61.27
79453;BME280;68899;52.116;5.404;2023-08-21T01:54:50;102402.44;;;22.79;61.04
79453;BME280;68899;52.116;5.404;2023-08-21T01:57:17;102403.28;;;22.80;60.83
79453;BME280;68899;52.116;5.404;2023-08-21T01:59:43;102409.66;;;22.79;60.85
79453;BME280;68899;52.116;5.404;2023-08-21T02:02:10;102411.47;;;22.78;60.82
79453;BME280;68899;52.116;5.404;2023-08-21T02:04:36;102411.47;;;22.78;60.93
79453;BME280;68899;52.116;5.404;2023-08-21T02:07:03;102410.63;;;22.78;60.84
79453;BME280;68899;52.116;5.404;2023-08-21T02:09:30;102412.47;;;22.77;61.09
79453;BME280;68899;52.116;5.404;2023-08-21T02:11:56;102407.22;;;22.76;61.00
79453;BME280;68899;52.116;5.404;2023-08-21T02:14:23;102402.84;;;22.75;60.77
79453;BME280;68899;52.116;5.404;2023-08-21T02:16:50;102395.63;;;22.75;60.97
79453;BME280;68899;52.116;5.404;2023-08-21T02:19:16;102404.66;;;22.74;61.02
79453;BME280;68899;52.116;5.404;2023-08-21T02:21:42;102407.34;;;22.74;60.82
79453;BME280;68899;52.116;5.404;2023-08-21T02:24:09;102408.19;;;22.75;60.92
79453;BME280;68899;52.116;5.404;2023-08-21T02:26:35;102405.66;;;22.73;60.81
79453;BME280;68899;52.116;5.404;2023-08-21T02:29:02;102405.66;;;22.73;60.88
79453;BME280;68899;52.116;5.404;2023-08-21T02:31:30;102402.28;;;22.71;60.80
79453;BME280;68899;52.116;5.404;2023-08-21T02:33:57;102406.66;;;22.72;60.75
79453;BME280;68899;52.116;5.404;2023-08-21T02:36:23;102405.81;;;22.72;61.03
79453;BME280;68899;52.116;5.404;2023-08-21T02:38:49;102403.25;;;22.70;61.01
79453;BME280;68899;52.116;5.404;2023-08-21T02:41:16;102408.63;;;22.70;61.04
79453;BME280;68899;52.116;5.404;2023-08-21T02:43:44;102416.69;;;22.70;60.78
79453;BME280;68899;52.116;5.404;2023-08-21T02:46:11;102409.63;;;22.69;60.91
79453;BME280;68899;52.116;5.404;2023-08-21T02:48:37;102407.78;;;22.70;60.85
79453;BME280;68899;52.116;5.404;2023-08-21T02:51:04;102409.63;;;22.69;60.80
79453;BME280;68899;52.116;5.404;2023-08-21T02:53:31;102409.63;;;22.69;61.13
79453;BME280;68899;52.116;5.404;2023-08-21T02:55:58;102407.91;;;22.68;61.09
79453;BME280;68899;52.116;5.404;2023-08-21T02:58:24;102413.28;;;22.68;61.10
79453;BME280;68899;52.116;5.404;2023-08-21T03:00:51;102407.06;;;22.68;61.07
79453;BME280;68899;52.116;5.404;2023-08-21T03:03:17;102411.56;;;22.67;61.38
79453;BME280;68899;52.116;5.404;2023-08-21T03:05:44;102408.03;;;22.67;60.80
79453;BME280;68899;52.116;5.404;2023-08-21T03:08:11;102408.03;;;22.67;61.09
79453;BME280;68899;52.116;5.404;2023-08-21T03:10:37;102407.19;;;22.66;61.03
79453;BME280;68899;52.116;5.404;2023-08-21T03:13:04;102411.69;;;22.66;61.36
79453;BME280;68899;52.116;5.404;2023-08-21T03:15:31;102411.69;;;22.66;60.95
79453;BME280;68899;52.116;5.404;2023-08-21T03:17:57;102406.47;;;22.64;60.94
79453;BME280;68899;52.116;5.404;2023-08-21T03:20:24;102411.84;;;22.64;61.13
79453;BME280;68899;52.116;5.404;2023-08-21T03:22:50;102417.22;;;22.64;61.31
79453;BME280;68899;52.116;5.404;2023-08-21T03:25:17;102411.84;;;22.64;61.15
79453;BME280;68899;52.116;5.404;2023-08-21T03:27:44;102406.63;;;22.63;60.85
79453;BME280;68899;52.116;5.404;2023-08-21T03:30:15;102410.16;;;22.63;61.06
79453;BME280;68899;52.116;5.404;2023-08-21T03:32:42;102414.53;;;22.64;61.06
79453;BME280;68899;52.116;5.404;2023-08-21T03:35:08;102415.50;;;22.63;61.13
79453;BME280;68899;52.116;5.404;2023-08-21T03:37:35;102408.44;;;22.62;61.20
79453;BME280;68899;52.116;5.404;2023-08-21T03:40:03;102405.78;;;22.62;61.24
79453;BME280;68899;52.116;5.404;2023-08-21T03:42:30;102399.56;;;22.62;61.26
79453;BME280;68899;52.116;5.404;2023-08-21T03:44:56;102401.41;;;22.61;61.17
79453;BME280;68899;52.116;5.404;2023-08-21T03:47:23;102398.72;;;22.61;61.14
79453;BME280;68899;52.116;5.404;2023-08-21T03:49:49;102401.41;;;22.61;61.32
79453;BME280;68899;52.116;5.404;2023-08-21T03:52:16;102400.53;;;22.61;61.11
79453;BME280;68899;52.116;5.404;2023-08-21T03:54:42;102391.66;;;22.60;61.15
79453;BME280;68899;52.116;5.404;2023-08-21T03:57:09;102394.44;;;22.58;61.04
79453;BME280;68899;52.116;5.404;2023-08-21T03:59:35;102398.00;;;22.59;61.17
79453;BME280;68899;52.116;5.404;2023-08-21T04:02:02;102396.28;;;22.58;61.25
79453;BME280;68899;52.116;5.404;2023-08-21T04:04:28;102394.44;;;22.58;61.42
79453;BME280;68899;52.116;5.404;2023-08-21T04:06:55;102398.97;;;22.58;60.80
79453;BME280;68899;52.116;5.404;2023-08-21T04:09:21;102402.63;;;22.57;61.23
79453;BME280;68899;52.116;5.404;2023-08-21T04:11:48;102398.13;;;22.57;61.21
79453;BME280;68899;52.116;5.404;2023-08-21T04:14:14;102405.31;;;22.57;61.37
79453;BME280;68899;52.116;5.404;2023-08-21T04:16:40;102409.81;;;22.56;61.17
79453;BME280;68899;52.116;5.404;2023-08-21T04:19:07;102407.16;;;22.56;61.33
79453;BME280;68899;52.116;5.404;2023-08-21T04:21:34;102414.34;;;22.56;61.25
79453;BME280;68899;52.116;5.404;2023-08-21T04:24:01;102418.88;;;22.55;61.24
79453;BME280;68899;52.116;5.404;2023-08-21T04:26:27;102420.69;;;22.55;61.32
79453;BME280;68899;52.116;5.404;2023-08-21T04:28:54;102421.53;;;22.55;61.38
79453;BME280;68899;52.116;5.404;2023-08-21T04:31:20;102416.31;;;22.54;61.38
79453;BME280;68899;52.116;5.404;2023-08-21T04:33:47;102413.50;;;22.55;61.28
79453;BME280;68899;52.116;5.404;2023-08-21T04:36:17;102415.47;;;22.53;61.18
79453;BME280;68899;52.116;5.404;2023-08-21T04:38:43;102412.78;;;22.53;61.38
79453;BME280;68899;52.116;5.404;2023-08-21T04:41:10;102414.63;;;22.53;61.31
79453;BME280;68899;52.116;5.404;2023-08-21T04:43:37;102414.63;;;22.53;61.35
79453;BME280;68899;52.116;5.404;2023-08-21T04:46:04;102414.63;;;22.53;61.36
79453;BME280;68899;52.116;5.404;2023-08-21T04:48:31;102420.00;;;22.53;61.16
79453;BME280;68899;52.116;5.404;2023-08-21T04:50:58;102419.16;;;22.52;61.25
79453;BME280;68899;52.116;5.404;2023-08-21T04:53:25;102423.66;;;22.52;61.24
79453;BME280;68899;52.116;5.404;2023-08-21T04:55:51;102420.13;;;22.51;61.22
79453;BME280;68899;52.116;5.404;2023-08-21T04:58:18;102414.88;;;22.50;61.36
79453;BME280;68899;52.116;5.404;2023-08-21T05:00:45;102416.59;;;22.51;61.12
79453;BME280;68899;52.116;5.404;2023-08-21T05:03:12;102415.84;;;22.49;61.10
79453;BME280;68899;52.116;5.404;2023-08-21T05:05:39;102423.91;;;22.49;60.99
79453;BME280;68899;52.116;5.404;2023-08-21T05:08:05;102427.56;;;22.48;61.26
79453;BME280;68899;52.116;5.404;2023-08-21T05:10:32;102423.06;;;22.48;61.16
79453;BME280;68899;52.116;5.404;2023-08-21T05:12:59;102427.56;;;22.48;61.24
79453;BME280;68899;52.116;5.404;2023-08-21T05:15:26;102435.47;;;22.49;61.09
79453;BME280;68899;52.116;5.404;2023-08-21T05:17:52;102434.78;;;22.47;61.35
79453;BME280;68899;52.116;5.404;2023-08-21T05:20:19;102435.63;;;22.48;61.05
79453;BME280;68899;52.116;5.404;2023-08-21T05:22:45;102443.66;;;22.48;61.67
79453;BME280;68899;52.116;5.404;2023-08-21T05:25:12;102437.47;;;22.47;61.16
79453;BME280;68899;52.116;5.404;2023-08-21T05:27:38;102439.16;;;22.48;61.41
79453;BME280;68899;52.116;5.404;2023-08-21T05:30:05;102438.44;;;22.46;61.02
79453;BME280;68899;52.116;5.404;2023-08-21T05:32:32;102440.97;;;22.48;61.14
79453;BME280;68899;52.116;5.404;2023-08-21T05:34:59;102437.47;;;22.47;61.15
79453;BME280;68899;52.116;5.404;2023-08-21T05:37:26;102433.06;;;22.46;61.08
79453;BME280;68899;52.116;5.404;2023-08-21T05:39:53;102435.63;;;22.48;61.43
79453;BME280;68899;52.116;5.404;2023-08-21T05:42:20;102432.94;;;22.48;61.17
79453;BME280;68899;52.116;5.404;2023-08-21T05:44:46;102440.00;;;22.49;61.21
79453;BME280;68899;52.116;5.404;2023-08-21T05:47:12;102441.69;;;22.50;61.14
79453;BME280;68899;52.116;5.404;2023-08-21T05:49:39;102438.06;;;22.51;61.23
79453;BME280;68899;52.116;5.404;2023-08-21T05:52:06;102439.75;;;22.52;61.23
79453;BME280;68899;52.116;5.404;2023-08-21T05:54:32;102441.44;;;22.53;61.21
79453;BME280;68899;52.116;5.404;2023-08-21T05:56:59;102445.69;;;22.55;61.48
79453;BME280;68899;52.116;5.404;2023-08-21T05:59:27;102443.84;;;22.56;61.21
79453;BME280;68899;52.116;5.404;2023-08-21T06:01:56;102448.97;;;22.59;61.31
79453;BME280;68899;52.116;5.404;2023-08-21T06:04:23;102441.78;;;22.60;61.31
79453;BME280;68899;52.116;5.404;2023-08-21T06:06:50;102445.16;;;22.62;61.46
79453;BME280;68899;52.116;5.404;2023-08-21T06:09:16;102447.69;;;22.63;60.83
79453;BME280;68899;52.116;5.404;2023-08-21T06:11:43;102453.06;;;22.63;61.30
79453;BME280;68899;52.116;5.404;2023-08-21T06:14:10;102447.69;;;22.63;61.29
79453;BME280;68899;52.116;5.404;2023-08-21T06:16:36;102440.50;;;22.64;61.38
79453;BME280;68899;52.116;5.404;2023-08-21T06:19:04;102445.72;;;22.65;61.20
79453;BME280;68899;52.116;5.404;2023-08-21T06:21:30;102445.59;;;22.67;61.36
79453;BME280;68899;52.116;5.404;2023-08-21T06:23:57;102453.25;;;22.71;61.26
79453;BME280;68899;52.116;5.404;2023-08-21T06:26:23;102457.50;;;22.74;61.38
79453;BME280;68899;52.116;5.404;2023-08-21T06:28:51;102451.28;;;22.73;61.41
79453;BME280;68899;52.116;5.404;2023-08-21T06:31:17;102455.66;;;22.74;61.24
79453;BME280;68899;52.116;5.404;2023-08-21T06:33:44;102449.44;;;22.74;61.40
79453;BME280;68899;52.116;5.404;2023-08-21T06:36:10;102452.97;;;22.74;61.14
79453;BME280;68899;52.116;5.404;2023-08-21T06:38:37;102457.50;;;22.74;61.27
79453;BME280;68899;52.116;5.404;2023-08-21T06:41:04;102453.97;;;22.73;61.20
79453;BME280;68899;52.116;5.404;2023-08-21T06:43:37;102452.97;;;22.74;61.38
79453;BME280;68899;52.116;5.404;2023-08-21T06:46:03;102451.03;;;22.76;61.57
79453;BME280;68899;52.116;5.404;2023-08-21T06:48:30;102452.72;;;22.77;61.56
79453;BME280;68899;52.116;5.404;2023-08-21T06:50:57;102449.06;;;22.78;61.62
79453;BME280;68899;52.116;5.404;2023-08-21T06:53:24;102450.59;;;22.81;61.76
79453;BME280;68899;52.116;5.404;2023-08-21T06:55:50;102454.00;;;22.83;61.67
79453;BME280;68899;52.116;5.404;2023-08-21T06:58:17;102457.53;;;22.83;61.59
79453;BME280;68899;52.116;5.404;2023-08-21T07:00:43;102454.75;;;22.85;61.78
79453;BME280;68899;52.116;5.404;2023-08-21T07:03:10;102456.47;;;22.86;61.67
79453;BME280;68899;52.116;5.404;2023-08-21T07:05:37;102461.94;;;22.84;61.81
79453;BME280;68899;52.116;5.404;2023-08-21T07:08:05;102458.16;;;22.87;61.87
79453;BME280;68899;52.116;5.404;2023-08-21T07:10:38;102461.41;;;22.91;61.59
79453;BME280;68899;52.116;5.404;2023-08-21T07:13:05;102458.47;;;22.94;61.64
79453;BME280;68899;52.116;5.404;2023-08-21T07:15:31;102456.22;;;22.99;61.59
79453;BME280;68899;52.116;5.404;2023-08-21T07:17:58;102461.28;;;23.02;61.41
79453;BME280;68899;52.116;5.404;2023-08-21T07:20:24;102459.34;;;23.04;61.61
79453;BME280;68899;52.116;5.404;2023-08-21T07:22:50;102460.06;;;23.06;61.81
79453;BME280;68899;52.116;5.404;2023-08-21T07:25:17;102469.66;;;23.08;61.31
79453;BME280;68899;52.116;5.404;2023-08-21T07:27:45;102466.84;;;23.10;61.54
79453;BME280;68899;52.116;5.404;2023-08-21T07:30:12;102460.50;;;23.11;61.40
79453;BME280;68899;52.116;5.404;2023-08-21T07:32:38;102463.19;;;23.11;61.50
79453;BME280;68899;52.116;5.404;2023-08-21T07:35:06;102458.66;;;23.11;61.61
79453;BME280;68899;52.116;5.404;2023-08-21T07:37:32;102463.03;;;23.12;61.56
79453;BME280;68899;52.116;5.404;2023-08-21T07:40:00;102463.03;;;23.12;61.40
79453;BME280;68899;52.116;5.404;2023-08-21T07:42:26;102466.44;;;23.15;61.90
79453;BME280;68899;52.116;5.404;2023-08-21T07:44:53;102467.28;;;23.15;62.01
79453;BME280;68899;52.116;5.404;2023-08-21T07:47:19;102470.53;;;23.19;61.97
79453;BME280;68899;52.116;5.404;2023-08-21T07:49:46;102468.56;;;23.21;61.78
79453;BME280;68899;52.116;5.404;2023-08-21T07:52:12;102462.94;;;23.24;61.88
79453;BME280;68899;52.116;5.404;2023-08-21T07:54:39;102469.84;;;23.26;61.38
79453;BME280;68899;52.116;5.404;2023-08-21T07:57:05;102470.44;;;23.30;61.76
79453;BME280;68899;52.116;5.404;2023-08-21T07:59:32;102475.38;;;23.34;61.60
79453;BME280;68899;52.116;5.404;2023-08-21T08:01:58;102477.06;;;23.35;61.49
79453;BME280;68899;52.116;5.404;2023-08-21T08:04:26;102470.59;;;23.38;61.35
79453;BME280;68899;52.116;5.404;2023-08-21T08:06:53;102475.97;;;23.38;62.22
79453;BME280;68899;52.116;5.404;2023-08-21T08:09:20;102472.44;;;23.37;62.40
79453;BME280;68899;52.116;5.404;2023-08-21T08:11:46;102471.31;;;23.40;62.55
79453;BME280;68899;52.116;5.404;2023-08-21T08:14:13;102465.63;;;23.43;62.40
79453;BME280;68899;52.116;5.404;2023-08-21T08:16:39;102471.72;;;23.45;62.27
79453;BME280;68899;52.116;5.404;2023-08-21T08:19:06;102474.00;;;23.50;61.83
79453;BME280;68899;52.116;5.404;2023-08-21T08:21:32;102480.78;;;23.54;61.67
79453;BME280;68899;52.116;5.404;2023-08-21T08:23:59;102482.09;;;23.59;61.61
79453;BME280;68899;52.116;5.404;2023-08-21T08:26:26;102479.13;;;23.62;61.81
79453;BME280;68899;52.116;5.404;2023-08-21T08:28:52;102480.56;;;23.66;61.68
79453;BME280;68899;52.116;5.404;2023-08-21T08:31:20;102475.75;;;23.70;61.81
79453;BME280;68899;52.116;5.404;2023-08-21T08:33:47;102478.16;;;23.73;61.23
79453;BME280;68899;52.116;5.404;2023-08-21T08:36:14;102475.88;;;23.78;60.84
79453;BME280;68899;52.116;5.404;2023-08-21T08:38:41;102479.00;;;23.83;61.32
79453;BME280;68899;52.116;5.404;2023-08-21T08:41:12;102479.56;;;23.87;61.03
79453;BME280;68899;52.116;5.404;2023-08-21T08:43:40;102480.25;;;23.89;61.00
79453;BME280;68899;52.116;5.404;2023-08-21T08:46:08;102482.41;;;23.95;61.07
79453;BME280;68899;52.116;5.404;2023-08-21T08:48:35;102486.63;;;23.97;60.77
79453;BME280;68899;52.116;5.404;2023-08-21T08:51:02;102484.66;;;24.09;59.74
79453;BME280;68899;52.116;5.404;2023-08-21T08:53:31;102494.16;;;24.33;60.09
79453;BME280;68899;52.116;5.404;2023-08-21T08:55:59;102486.72;;;24.54;59.24
79453;BME280;68899;52.116;5.404;2023-08-21T08:58:26;102478.44;;;24.75;58.74
79453;BME280;68899;52.116;5.404;2023-08-21T09:00:53;102474.38;;;24.98;57.62
79453;BME280;68899;52.116;5.404;2023-08-21T09:03:19;102477.41;;;25.23;56.96
79453;BME280;68899;52.116;5.404;2023-08-21T09:05:46;102481.81;;;25.42;55.82
79453;BME280;68899;52.116;5.404;2023-08-21T09:08:14;102471.03;;;25.42;55.44
79453;BME280;68899;52.116;5.404;2023-08-21T09:10:42;102466.41;;;25.52;55.45
79453;BME280;68899;52.116;5.404;2023-08-21T09:13:16;102458.16;;;25.81;55.29
79453;BME280;68899;52.116;5.404;2023-08-21T09:15:48;102461.19;;;26.04;54.26
79453;BME280;68899;52.116;5.404;2023-08-21T09:18:15;102472.94;;;26.20;52.85
79453;BME280;68899;52.116;5.404;2023-08-21T09:20:43;102468.38;;;26.39;52.83
79453;BME280;68899;52.116;5.404;2023-08-21T09:23:14;102471.88;;;26.57;52.38
79453;BME280;68899;52.116;5.404;2023-08-21T09:25:46;102468.13;;;26.76;51.71
79453;BME280;68899;52.116;5.404;2023-08-21T09:28:14;102471.41;;;26.96;50.53
79453;BME280;68899;52.116;5.404;2023-08-21T09:30:51;102466.94;;;27.13;51.36
79453;BME280;68899;52.116;5.404;2023-08-21T09:33:19;102469.84;;;27.27;49.81
79453;BME280;68899;52.116;5.404;2023-08-21T09:35:47;102469.72;;;27.37;49.56
79453;BME280;68899;52.116;5.404;2023-08-21T09:38:14;102471.09;;;27.49;49.24
79453;BME280;68899;52.116;5.404;2023-08-21T09:40:41;102458.25;;;27.59;49.08
79453;BME280;68899;52.116;5.404;2023-08-21T09:43:09;102465.22;;;27.70;48.82
79453;BME280;68899;52.116;5.404;2023-08-21T09:45:37;102461.34;;;27.81;48.08
79453;BME280;68899;52.116;5.404;2023-08-21T09:48:06;102457.47;;;27.92;47.61
79453;BME280;68899;52.116;5.404;2023-08-21T09:50:34;102459.47;;;28.06;47.70
79453;BME280;68899;52.116;5.404;2023-08-21T09:53:02;102450.34;;;28.15;47.05
79453;BME280;68899;52.116;5.404;2023-08-21T09:55:32;102451.84;;;28.26;47.21
79453;BME280;68899;52.116;5.404;2023-08-21T09:57:59;102458.13;;;28.34;46.49
79453;BME280;68899;52.116;5.404;2023-08-21T10:00:29;102447.13;;;28.36;45.84
79453;BME280;68899;52.116;5.404;2023-08-21T10:03:00;102449.97;;;28.51;45.94
79453;BME280;68899;52.116;5.404;2023-08-21T10:05:28;102452.53;;;28.44;45.35
79453;BME280;68899;52.116;5.404;2023-08-21T10:07:55;102451.69;;;28.35;45.28
79453;BME280;68899;52.116;5.404;2023-08-21T10:10:22;102450.00;;;28.18;46.18
79453;BME280;68899;52.116;5.404;2023-08-21T10:12:49;102443.59;;;27.86;47.11
79453;BME280;68899;52.116;5.404;2023-08-21T10:15:16;102444.22;;;27.56;47.71
79453;BME280;68899;52.116;5.404;2023-08-21T10:17:43;102436.09;;;27.31;47.96
79453;BME280;68899;52.116;5.404;2023-08-21T10:20:10;102431.81;;;27.13;48.62
79453;BME280;68899;52.116;5.404;2023-08-21T10:22:45;102437.38;;;27.03;48.70
79453;BME280;68899;52.116;5.404;2023-08-21T10:25:20;102431.91;;;26.95;49.40
79453;BME280;68899;52.116;5.404;2023-08-21T10:27:50;102426.13;;;26.90;49.93
79453;BME280;68899;52.116;5.404;2023-08-21T10:30:25;102432.38;;;26.90;49.46
79453;BME280;68899;52.116;5.404;2023-08-21T10:32:54;102438.28;;;26.86;49.51
79453;BME280;68899;52.116;5.404;2023-08-21T10:35:23;102434.88;;;26.84;49.65
79453;BME280;68899;52.116;5.404;2023-08-21T10:38:17;102438.28;;;26.86;49.71
79453;BME280;68899;52.116;5.404;2023-08-21T10:41:03;102444.34;;;26.88;49.65
79453;BME280;68899;52.116;5.404;2023-08-21T10:46:05;102447.41;;;26.85;49.64
79453;BME280;68899;52.116;5.404;2023-08-21T10:48:32;102440.47;;;26.90;49.41
79453;BME280;68899;52.116;5.404;2023-08-21T10:51:02;102441.69;;;26.96;49.70
79453;BME280;68899;52.116;5.404;2023-08-21T10:53:31;102450.00;;;27.02;49.85
79453;BME280;68899;52.116;5.404;2023-08-21T10:56:01;102443.78;;;27.10;50.07
79453;BME280;68899;52.116;5.404;2023-08-21T10:58:28;102439.25;;;27.11;49.93
79453;BME280;68899;52.116;5.404;2023-08-21T11:01:01;102440.25;;;27.18;50.66
79453;BME280;68899;52.116;5.404;2023-08-21T11:03:27;102436.06;;;27.23;50.55
79453;BME280;68899;52.116;5.404;2023-08-21T11:06:05;102438.13;;;27.38;50.21
79453;BME280;68899;52.116;5.404;2023-08-21T11:08:33;102440.13;;;27.44;50.54
79453;BME280;68899;52.116;5.404;2023-08-21T11:11:05;102433.41;;;27.56;50.51
79453;BME280;68899;52.116;5.404;2023-08-21T11:13:32;102439.53;;;27.82;49.85
79453;BME280;68899;52.116;5.404;2023-08-21T11:16:06;102441.47;;;28.62;48.16
79453;BME280;68899;52.116;5.404;2023-08-21T11:18:34;102440.22;;;29.20;46.08
79453;BME280;68899;52.116;5.404;2023-08-21T11:21:09;102433.94;;;29.42;46.61
79453;BME280;68899;52.116;5.404;2023-08-21T11:23:38;102430.59;;;30.24;44.73
79453;BME280;68899;52.116;5.404;2023-08-21T11:26:05;102434.44;;;30.74;43.58
79453;BME280;68899;52.116;5.404;2023-08-21T11:28:47;102438.69;;;31.12;41.69
79453;BME280;68899;52.116;5.404;2023-08-21T11:31:14;102429.41;;;31.43;40.58
79453;BME280;68899;52.116;5.404;2023-08-21T11:33:40;102436.31;;;31.39;40.56
79453;BME280;68899;52.116;5.404;2023-08-21T11:36:07;102429.69;;;31.48;39.91
79453;BME280;68899;52.116;5.404;2023-08-21T11:38:34;102432.75;;;31.81;39.34
79453;BME280;68899;52.116;5.404;2023-08-21T11:41:02;102431.72;;;32.10;39.54
79453;BME280;68899;52.116;5.404;2023-08-21T11:43:37;102433.22;;;32.41;38.79
79453;BME280;68899;52.116;5.404;2023-08-21T11:46:06;102438.09;;;32.52;37.63
79453;BME280;68899;52.116;5.404;2023-08-21T11:48:33;102432.47;;;32.67;37.20
79453;BME280;68899;52.116;5.404;2023-08-21T11:51:01;102417.66;;;32.76;37.36
79453;BME280;68899;52.116;5.404;2023-08-21T11:53:41;102430.97;;;32.99;36.93
79453;BME280;68899;52.116;5.404;2023-08-21T11:56:10;102422.19;;;33.10;36.42
79453;BME280;68899;52.116;5.404;2023-08-21T11:58:40;102422.50;;;32.80;36.15
79453;BME280;68899;52.116;5.404;2023-08-21T12:01:07;102414.00;;;31.71;39.61
79453;BME280;68899;52.116;5.404;2023-08-21T12:03:40;102413.38;;;30.76;39.64
79453;BME280;68899;52.116;5.404;2023-08-21T12:06:07;102418.53;;;30.26;41.02
79453;BME280;68899;52.116;5.404;2023-08-21T12:08:35;102409.00;;;29.93;41.50
79453;BME280;68899;52.116;5.404;2023-08-21T12:11:01;102410.41;;;29.66;41.73
79453;BME280;68899;52.116;5.404;2023-08-21T12:13:29;102413.09;;;29.43;42.49
79453;BME280;68899;52.116;5.404;2023-08-21T12:15:59;102413.09;;;29.20;42.99
79453;BME280;68899;52.116;5.404;2023-08-21T12:18:26;102410.59;;;29.10;42.91
79453;BME280;68899;52.116;5.404;2023-08-21T12:20:52;102404.75;;;28.98;43.68
79453;BME280;68899;52.116;5.404;2023-08-21T12:23:19;102397.56;;;28.75;43.04
79453;BME280;68899;52.116;5.404;2023-08-21T12:25:45;102405.25;;;28.55;43.31
79453;BME280;68899;52.116;5.404;2023-08-21T12:28:12;102402.13;;;28.35;44.15
79453;BME280;68899;52.116;5.404;2023-08-21T12:30:38;102399.25;;;28.20;44.54
79453;BME280;68899;52.116;5.404;2023-08-21T12:33:05;102398.25;;;28.05;45.08
79453;BME280;68899;52.116;5.404;2023-08-21T12:35:47;102394.22;;;27.93;45.30
79453;BME280;68899;52.116;5.404;2023-08-21T12:38:14;102399.47;;;27.86;45.77
79453;BME280;68899;52.116;5.404;2023-08-21T12:40:40;102394.91;;;27.78;46.17
79453;BME280;68899;52.116;5.404;2023-08-21T12:43:07;102392.19;;;27.70;46.46
79453;BME280;68899;52.116;5.404;2023-08-21T12:45:36;102396.06;;;27.59;46.70
79453;BME280;68899;52.116;5.404;2023-08-21T12:48:04;102391.00;;;27.56;46.76
79453;BME280;68899;52.116;5.404;2023-08-21T12:50:31;102387.63;;;27.54;46.86
79453;BME280;68899;52.116;5.404;2023-08-21T12:52:57;102389.81;;;27.51;46.85
79453;BME280;68899;52.116;5.404;2023-08-21T12:55:24;102393.03;;;27.46;46.52
79453;BME280;68899;52.116;5.404;2023-08-21T12:57:50;102393.88;;;27.39;46.76